Time;durP1;ratioP1;P1;durP2;ratioP2;P2;SDS_P1;SDS_P2;PMS_P1;PMS_P2;Temp;Humidity;BMP_temperature;BMP_pressure;BME280_temperature;BME280_humidity;BME280_pressure;Samples;Min_cycle;Max_cycle;Signal;HPM_P1;HPM_P2
2023/04/04 00:00:18;;;;;;;6.45;3.83;;;4.20;99.90;;;;;;5091333;28;20044;-71
2023/04/04 00:02:43;;;;;;;8.23;3.38;;;4.20;99.90;;;;;;5091228;28;20036;-71
2023/04/04 00:05:09;;;;;;;6.95;2.97;;;4.20;99.90;;;;;;5094480;28;20047;-71
2023/04/04 00:07:35;;;;;;;5.60;3.15;;;4.20;99.90;;;;;;5094980;28;20089;-72
2023/04/04 00:10:00;;;;;;;5.47;3.47;;;4.20;99.90;;;;;;5094975;28;20036;-71
2023/04/04 00:12:26;;;;;;;7.28;3.38;;;4.10;99.90;;;;;;5095224;28;20131;-71
2023/04/04 00:14:52;;;;;;;10.18;4.43;;;4.10;99.90;;;;;;5094684;28;20032;-71
2023/04/04 00:17:17;;;;;;;7.05;3.42;;;4.00;99.90;;;;;;5093672;28;20036;-71
2023/04/04 00:19:43;;;;;;;7.30;3.40;;;4.00;99.90;;;;;;5094920;28;20076;-71
2023/04/04 00:22:09;;;;;;;6.45;3.40;;;3.90;99.90;;;;;;5094912;28;20086;-71
2023/04/04 00:24:34;;;;;;;6.65;3.50;;;3.90;99.90;;;;;;5094747;28;20052;-71
2023/04/04 00:27:00;;;;;;;6.20;3.55;;;3.90;99.90;;;;;;5094738;28;20516;-71
2023/04/04 00:29:26;;;;;;;6.43;3.38;;;3.80;99.90;;;;;;5094794;28;20046;-71
2023/04/04 00:31:52;;;;;;;7.03;3.70;;;3.80;99.90;;;;;;5094610;28;20040;-71
2023/04/04 00:34:17;;;;;;;7.43;3.83;;;3.80;99.90;;;;;;5094301;28;20047;-71
2023/04/04 00:36:43;;;;;;;5.13;3.08;;;3.70;99.90;;;;;;5094298;28;20067;-71
2023/04/04 00:39:08;;;;;;;6.60;3.95;;;3.70;99.90;;;;;;5094027;28;20044;-71
2023/04/04 00:41:34;;;;;;;7.60;3.65;;;3.70;99.90;;;;;;5093131;28;20368;-71
2023/04/04 00:44:00;;;;;;;6.50;3.60;;;3.60;99.90;;;;;;5094335;28;20044;-71
2023/04/04 00:46:26;;;;;;;6.05;2.88;;;3.60;99.90;;;;;;5092960;28;20047;-71
2023/04/04 00:48:53;;;;;;;7.95;3.33;;;3.50;99.90;;;;;;5094165;28;20040;-71
2023/04/04 00:51:18;;;;;;;5.80;3.30;;;3.50;99.90;;;;;;5094168;28;20032;-71
2023/04/04 00:53:46;;;;;;;6.07;3.40;;;3.50;99.90;;;;;;5093977;28;20039;-71
2023/04/04 00:56:12;;;;;;;6.93;3.38;;;3.40;99.90;;;;;;5093797;28;20384;-71
2023/04/04 00:58:38;;;;;;;8.25;3.50;;;3.40;99.90;;;;;;5094050;28;20044;-71
2023/04/04 01:01:04;;;;;;;7.72;4.40;;;3.30;99.90;;;;;;5094086;28;20036;-71
2023/04/04 01:03:31;;;;;;;6.75;3.63;;;3.30;99.90;;;;;;5092611;28;20040;-71
2023/04/04 01:05:57;;;;;;;14.80;3.83;;;3.40;99.90;;;;;;5093615;28;20040;-71
2023/04/04 01:08:26;;;;;;;4.60;2.88;;;3.30;99.90;;;;;;5092364;28;21472;-71
2023/04/04 01:10:51;;;;;;;8.48;4.07;;;3.20;99.90;;;;;;5093889;28;20032;-72
2023/04/04 01:13:17;;;;;;;6.93;3.45;;;3.20;99.90;;;;;;5093567;28;20032;-71
2023/04/04 01:15:43;;;;;;;10.30;3.85;;;3.10;99.90;;;;;;5091340;28;20087;-71
2023/04/04 01:18:11;;;;;;;6.90;3.47;;;3.10;99.90;;;;;;5093571;28;20072;-71
2023/04/04 01:21:00;;;;;;;8.55;3.70;;;3.00;99.90;;;;;;5092142;28;20036;-71
2023/04/04 01:23:35;;;;;;;6.38;3.63;;;3.00;99.90;;;;;;5092115;28;20048;-71
2023/04/04 01:26:02;;;;;;;7.60;4.13;;;3.00;99.90;;;;;;5091874;28;20044;-71
2023/04/04 01:28:27;;;;;;;8.00;3.20;;;3.00;99.90;;;;;;5093291;28;20407;-71
2023/04/04 01:30:54;;;;;;;8.65;4.15;;;3.00;99.90;;;;;;5093357;28;20038;-71
2023/04/04 01:33:28;;;;;;;5.65;3.47;;;3.00;99.90;;;;;;5093168;28;20101;-71
2023/04/04 01:36:17;;;;;;;9.20;3.50;;;2.90;99.90;;;;;;5093204;28;20086;-71
2023/04/04 01:38:58;;;;;;;10.82;3.53;;;2.90;99.90;;;;;;5093038;28;20551;-71
2023/04/04 01:41:25;;;;;;;9.00;3.72;;;2.80;99.90;;;;;;5093183;28;20039;-71
2023/04/04 01:43:51;;;;;;;6.45;3.50;;;2.90;99.90;;;;;;5092812;28;20032;-72
2023/04/04 01:46:17;;;;;;;8.02;3.50;;;2.70;99.90;;;;;;5093094;28;20115;-71
2023/04/04 01:48:45;;;;;;;6.32;4.20;;;2.80;99.90;;;;;;5093084;28;20578;-71
2023/04/04 01:51:11;;;;;;;6.90;3.35;;;2.70;99.90;;;;;;5093032;28;20442;-71
2023/04/04 01:53:37;;;;;;;8.93;4.68;;;2.70;99.90;;;;;;5092873;28;20036;-71
2023/04/04 01:56:03;;;;;;;6.03;3.40;;;2.70;99.90;;;;;;5092520;28;20042;-71
2023/04/04 01:58:29;;;;;;;7.70;3.40;;;2.70;99.90;;;;;;5091454;28;20534;-71
2023/04/04 02:00:55;;;;;;;8.05;2.92;;;2.70;99.90;;;;;;5091489;28;20044;-71
2023/04/04 02:03:21;;;;;;;6.68;3.47;;;2.60;99.90;;;;;;5092693;28;20044;-71
2023/04/04 02:05:47;;;;;;;5.43;2.72;;;2.70;99.90;;;;;;5092452;28;20096;-71
2023/04/04 02:08:14;;;;;;;6.70;2.50;;;2.60;99.90;;;;;;5092610;28;20107;-71
2023/04/04 02:10:39;;;;;;;8.50;3.13;;;2.60;99.90;;;;;;5092515;28;20050;-71
2023/04/04 02:13:05;;;;;;;6.05;2.95;;;2.60;99.90;;;;;;5092788;28;20043;-71
2023/04/04 02:15:35;;;;;;;7.20;3.00;;;2.60;99.90;;;;;;5092421;28;20410;-71
2023/04/04 02:18:00;;;;;;;6.07;2.92;;;2.50;99.90;;;;;;5091195;28;20040;-71
2023/04/04 02:20:26;;;;;;;7.25;2.75;;;2.50;99.90;;;;;;5091355;28;20039;-71
2023/04/04 02:22:53;;;;;;;9.38;3.20;;;2.50;99.90;;;;;;5092312;28;20074;-71
2023/04/04 02:25:21;;;;;;;7.30;3.35;;;2.50;99.90;;;;;;5091963;28;20093;-71
2023/04/04 02:27:46;;;;;;;6.18;2.83;;;2.40;99.90;;;;;;5092330;28;20043;-71
2023/04/04 02:30:13;;;;;;;4.25;2.53;;;2.40;99.90;;;;;;5092354;28;20032;-71
2023/04/04 02:32:38;;;;;;;7.20;3.10;;;2.50;99.90;;;;;;5092360;28;20118;-71
2023/04/04 02:35:04;;;;;;;4.50;2.60;;;2.50;99.90;;;;;;5090988;28;20570;-71
2023/04/04 02:37:30;;;;;;;7.07;3.03;;;2.50;99.90;;;;;;5092121;28;20518;-71
2023/04/04 02:39:55;;;;;;;4.47;2.58;;;2.50;99.90;;;;;;5091872;28;20052;-71
2023/04/04 02:42:21;;;;;;;7.35;2.58;;;2.40;99.90;;;;;;5092196;28;20047;-71
2023/04/04 02:44:47;;;;;;;4.90;3.10;;;2.40;99.90;;;;;;5091937;28;20040;-72
2023/04/04 02:47:12;;;;;;;9.77;3.22;;;2.40;99.90;;;;;;5092085;28;20032;-71
2023/04/04 02:49:38;;;;;;;9.25;2.78;;;2.40;99.90;;;;;;5091958;28;20027;-71
2023/04/04 02:52:03;;;;;;;4.55;2.92;;;2.40;99.90;;;;;;5091945;28;20086;-71
2023/04/04 02:54:29;;;;;;;3.83;2.47;;;2.40;99.90;;;;;;5091233;28;20035;-71
2023/04/04 02:56:55;;;;;;;4.40;2.67;;;2.40;99.90;;;;;;5092002;28;20048;-71
2023/04/04 02:59:20;;;;;;;7.80;3.45;;;2.50;99.90;;;;;;5091945;28;20044;-71
2023/04/04 03:01:46;;;;;;;5.22;2.72;;;2.40;99.90;;;;;;5090451;28;20044;-71
2023/04/04 03:04:12;;;;;;;5.57;2.70;;;2.50;99.90;;;;;;5091757;28;20028;-71
2023/04/04 03:06:39;;;;;;;6.25;2.55;;;2.50;99.90;;;;;;5091645;28;20060;-71
2023/04/04 03:09:05;;;;;;;5.38;2.50;;;2.60;99.90;;;;;;5091561;28;20036;-71
2023/04/04 03:11:30;;;;;;;6.40;2.70;;;2.50;99.90;;;;;;5076625;28;20036;-71
2023/04/04 03:13:56;;;;;;;5.18;2.55;;;2.50;99.90;;;;;;5071364;28;20048;-71
2023/04/04 03:16:22;;;;;;;5.25;2.63;;;2.50;99.90;;;;;;5071435;28;20044;-71
2023/04/04 03:18:48;;;;;;;5.80;2.65;;;2.50;99.90;;;;;;5071455;28;20036;-72
2023/04/04 03:21:14;;;;;;;5.80;2.80;;;2.40;99.90;;;;;;5071550;28;20377;-71
2023/04/04 03:23:39;;;;;;;4.95;2.58;;;2.40;99.90;;;;;;5071173;28;20041;-71
2023/04/04 03:26:05;;;;;;;11.73;2.80;;;2.40;99.90;;;;;;5071379;28;20052;-71
2023/04/04 03:28:31;;;;;;;7.10;2.88;;;2.30;99.90;;;;;;5071477;28;20040;-71
2023/04/04 03:30:56;;;;;;;6.90;2.42;;;2.30;99.90;;;;;;5071532;28;20040;-71
2023/04/04 03:33:22;;;;;;;4.97;3.63;;;2.20;99.90;;;;;;5071347;28;20408;-71
2023/04/04 03:35:47;;;;;;;8.00;3.92;;;2.20;99.90;;;;;;5070999;28;20127;-71
2023/04/04 03:38:13;;;;;;;8.93;3.40;;;2.10;99.90;;;;;;5071192;28;20044;-71
2023/04/04 03:40:40;;;;;;;5.50;2.80;;;2.10;99.90;;;;;;5075381;28;20115;-71
2023/04/04 03:43:06;;;;;;;4.30;2.55;;;2.10;99.90;;;;;;5075221;28;20182;-71
2023/04/04 03:45:34;;;;;;;5.00;2.42;;;2.10;99.90;;;;;;5074838;28;20051;-71
2023/04/04 03:48:01;;;;;;;4.70;2.58;;;2.10;99.90;;;;;;5075176;28;20040;-71
2023/04/04 03:50:26;;;;;;;5.40;2.75;;;2.10;99.90;;;;;;5074891;28;20051;-71
2023/04/04 03:52:52;;;;;;;5.30;2.85;;;2.10;99.90;;;;;;5073563;28;20119;-71
2023/04/04 03:55:17;;;;;;;4.40;2.85;;;2.10;99.90;;;;;;5074754;28;20043;-71
2023/04/04 03:57:43;;;;;;;3.10;2.38;;;2.10;99.90;;;;;;5074955;28;20040;-71
2023/04/04 04:00:09;;;;;;;6.28;3.17;;;2.00;99.90;;;;;;5074723;28;20029;-71
2023/04/04 04:02:35;;;;;;;4.18;2.63;;;2.10;99.90;;;;;;5074831;28;20400;-71
2023/04/04 04:05:01;;;;;;;3.65;2.33;;;2.00;99.90;;;;;;5074472;28;20039;-71
2023/04/04 04:07:26;;;;;;;4.43;2.70;;;2.00;99.90;;;;;;5074583;28;20550;-71
2023/04/04 04:09:52;;;;;;;5.15;2.70;;;2.00;99.90;;;;;;5074787;28;20467;-71
2023/04/04 04:12:18;;;;;;;7.85;2.97;;;2.00;99.90;;;;;;5074692;28;20058;-71
2023/04/04 04:14:44;;;;;;;6.53;2.50;;;2.00;99.90;;;;;;5074443;28;20052;-71
2023/04/04 04:17:09;;;;;;;4.93;2.47;;;2.10;99.90;;;;;;5073279;28;20044;-71
2023/04/04 04:19:34;;;;;;;11.05;3.38;;;2.10;99.90;;;;;;5074394;28;20040;-71
2023/04/04 04:22:00;;;;;;;4.93;2.60;;;2.10;99.90;;;;;;5074206;28;20044;-71
2023/04/04 04:24:25;;;;;;;5.90;2.70;;;2.00;99.90;;;;;;5074453;28;20047;-71
2023/04/04 04:26:51;;;;;;;7.75;3.05;;;2.00;99.90;;;;;;5074196;28;20514;-71
2023/04/04 04:29:16;;;;;;;5.90;2.67;;;2.00;99.90;;;;;;5073130;28;20086;-71
2023/04/04 04:31:42;;;;;;;7.35;3.60;;;2.00;99.90;;;;;;5074379;28;20040;-71
2023/04/04 04:34:08;;;;;;;4.95;3.03;;;2.00;99.90;;;;;;5074133;28;20040;-71
2023/04/04 04:36:36;;;;;;;4.78;2.72;;;2.00;99.90;;;;;;5073938;28;20032;-71
2023/04/04 04:39:02;;;;;;;6.20;3.13;;;2.00;99.90;;;;;;5100868;22;20040;-68
2023/04/04 04:41:31;;;;;;;8.93;3.88;;;2.00;99.90;;;;;;5094343;28;20032;-66
2023/04/04 04:43:56;;;;;;;7.20;2.88;;;2.00;99.90;;;;;;5093714;28;20036;-66
2023/04/04 04:46:22;;;;;;;6.35;3.10;;;1.90;99.90;;;;;;5094018;28;20039;-65
2023/04/04 04:48:47;;;;;;;5.97;3.20;;;1.90;99.90;;;;;;5094126;28;20040;-66
2023/04/04 04:51:14;;;;;;;5.55;2.75;;;1.90;99.90;;;;;;5093967;28;20040;-65
2023/04/04 04:53:40;;;;;;;10.02;3.55;;;1.90;99.90;;;;;;5092831;28;20089;-65
2023/04/04 04:56:06;;;;;;;6.10;3.47;;;1.90;99.90;;;;;;5093875;28;20036;-66
2023/04/04 04:58:32;;;;;;;5.95;3.40;;;1.90;99.90;;;;;;5094217;28;20047;-66
2023/04/04 05:01:00;;;;;;;6.85;3.30;;;1.90;99.90;;;;;;5093894;28;20035;-66
2023/04/04 05:03:26;;;;;;;5.72;3.45;;;1.90;99.90;;;;;;5093553;28;20414;-66
2023/04/04 05:05:52;;;;;;;8.18;3.60;;;1.90;99.90;;;;;;5093354;28;20036;-66
2023/04/04 05:08:17;;;;;;;9.70;4.22;;;1.90;99.90;;;;;;5093953;28;20043;-67
2023/04/04 05:10:43;;;;;;;4.15;3.28;;;1.80;99.90;;;;;;5093637;28;20036;-66
2023/04/04 05:13:09;;;;;;;5.82;2.97;;;1.80;99.90;;;;;;5093623;28;20446;-67
2023/04/04 05:15:35;;;;;;;8.20;3.80;;;1.80;99.90;;;;;;5093336;28;20046;-67
2023/04/04 05:18:01;;;;;;;6.13;2.90;;;1.80;99.90;;;;;;5093475;28;20047;-66
2023/04/04 05:20:27;;;;;;;3.88;2.38;;;1.80;99.90;;;;;;5093286;28;20753;-67
2023/04/04 05:22:52;;;;;;;5.40;2.83;;;1.80;99.90;;;;;;5093307;28;20040;-66
2023/04/04 05:25:18;;;;;;;6.75;2.60;;;1.90;99.90;;;;;;5093236;28;20054;-67
2023/04/04 05:27:47;;;;;;;6.43;3.28;;;1.90;99.90;;;;;;5092228;28;20035;-66
2023/04/04 05:30:13;;;;;;;6.15;2.75;;;2.00;99.90;;;;;;5092011;28;20191;-66
2023/04/04 05:32:39;;;;;;;8.95;2.90;;;2.10;99.90;;;;;;5093158;28;20111;-66
2023/04/04 05:35:05;;;;;;;6.38;3.22;;;2.10;99.90;;;;;;5091615;28;20453;-68
2023/04/04 05:37:31;;;;;;;6.18;3.30;;;2.10;99.90;;;;;;5093054;28;20547;-67
2023/04/04 05:39:56;;;;;;;7.38;3.67;;;2.20;99.90;;;;;;5092950;28;20124;-66
2023/04/04 05:42:22;;;;;;;5.93;3.40;;;2.30;99.90;;;;;;5092998;28;20051;-67
2023/04/04 05:44:47;;;;;;;5.30;2.90;;;2.40;99.90;;;;;;5092656;28;20036;-67
2023/04/04 05:47:13;;;;;;;7.97;3.50;;;2.40;99.90;;;;;;5092728;28;20528;-67
2023/04/04 05:49:38;;;;;;;7.00;3.58;;;2.40;99.90;;;;;;5093029;28;20115;-67
2023/04/04 05:52:04;;;;;;;8.40;2.97;;;2.40;99.90;;;;;;5093091;28;20039;-67
2023/04/04 05:54:29;;;;;;;6.35;2.75;;;2.40;99.90;;;;;;5092821;28;20039;-68
2023/04/04 05:56:55;;;;;;;6.43;2.95;;;2.40;99.90;;;;;;5091351;28;20032;-67
2023/04/04 05:59:21;;;;;;;7.47;3.28;;;2.50;99.90;;;;;;5092724;28;20040;-67
2023/04/04 06:01:46;;;;;;;8.77;2.90;;;2.40;99.90;;;;;;5092031;28;20105;-67
2023/04/04 06:04:12;;;;;;;8.60;3.63;;;2.40;99.90;;;;;;5091403;28;20526;-66
2023/04/04 06:06:38;;;;;;;5.93;3.53;;;2.40;99.90;;;;;;5092434;28;20032;-67
2023/04/04 06:09:03;;;;;;;8.95;3.50;;;2.40;99.90;;;;;;5092602;28;20040;-67
2023/04/04 06:11:29;;;;;;;7.03;3.88;;;2.40;99.90;;;;;;5092571;28;20040;-67
2023/04/04 06:13:54;;;;;;;8.63;4.00;;;2.50;99.90;;;;;;5092343;28;20044;-67
2023/04/04 06:16:21;;;;;;;6.63;3.80;;;2.60;99.90;;;;;;5092296;28;20391;-66
2023/04/04 06:18:47;;;;;;;10.40;4.80;;;2.60;99.90;;;;;;5092231;28;20028;-67
2023/04/04 06:21:12;;;;;;;5.72;3.88;;;2.70;99.90;;;;;;5091012;28;20513;-67
2023/04/04 06:23:38;;;;;;;9.90;3.70;;;2.90;99.90;;;;;;5092260;28;20040;-67
2023/04/04 06:26:05;;;;;;;10.13;3.72;;;3.00;99.90;;;;;;5090945;28;20068;-67
2023/04/04 06:28:31;;;;;;;8.70;3.88;;;3.10;99.90;;;;;;5092207;28;20406;-67
2023/04/04 06:30:56;;;;;;;6.43;4.18;;;3.30;99.90;;;;;;5080331;28;20111;-67
2023/04/04 06:33:22;;;;;;;9.50;3.45;;;3.60;99.90;;;;;;5082133;28;20469;-67
2023/04/04 06:35:47;;;;;;;7.65;3.60;;;3.80;99.90;;;;;;5080076;28;20041;-67
2023/04/04 06:38:13;;;;;;;6.93;3.58;;;4.00;99.90;;;;;;5080828;28;20388;-66
2023/04/04 06:40:38;;;;;;;5.85;3.38;;;4.30;99.90;;;;;;5088643;28;20143;-66
2023/04/04 06:43:04;;;;;;;5.15;3.20;;;4.50;99.90;;;;;;5091913;28;20036;-67
2023/04/04 06:45:32;;;;;;;6.70;4.03;;;4.70;99.90;;;;;;5091636;28;20039;-66
2023/04/04 06:47:58;;;;;;;7.97;3.50;;;4.80;99.90;;;;;;5090616;28;20040;-67
2023/04/04 06:50:24;;;;;;;6.97;3.55;;;5.10;99.90;;;;;;5091931;28;20538;-67
2023/04/04 06:52:51;;;;;;;8.52;3.40;;;5.20;99.10;;;;;;5090612;28;20044;-67
2023/04/04 06:55:17;;;;;;;9.55;3.70;;;5.40;98.60;;;;;;5091717;28;20055;-67
2023/04/04 06:57:43;;;;;;;9.77;4.35;;;5.70;97.40;;;;;;5091842;28;20036;-67
2023/04/04 07:00:09;;;;;;;8.60;3.38;;;5.70;96.90;;;;;;5091653;28;20043;-67
2023/04/04 07:02:35;;;;;;;10.15;4.40;;;5.90;95.80;;;;;;5091501;28;20040;-67
2023/04/04 07:05:02;;;;;;;6.00;3.20;;;6.00;95.10;;;;;;5091422;28;20142;-67
2023/04/04 07:07:28;;;;;;;9.50;3.47;;;6.20;94.80;;;;;;5091745;28;20040;-67
2023/04/04 07:09:55;;;;;;;9.55;3.70;;;6.10;93.80;;;;;;5091697;28;20047;-67
2023/04/04 07:12:21;;;;;;;7.70;2.83;;;6.10;92.50;;;;;;5089736;28;20395;-67
2023/04/04 07:14:46;;;;;;;6.70;3.10;;;6.20;91.60;;;;;;5090018;28;20040;-67
2023/04/04 07:17:12;;;;;;;4.07;2.70;;;6.20;92.10;;;;;;5095949;28;20047;-67
2023/04/04 07:19:38;;;;;;;8.15;3.53;;;6.30;91.60;;;;;;5095866;28;20122;-67
2023/04/04 07:22:03;;;;;;;6.50;2.97;;;6.70;90.20;;;;;;5094454;28;20454;-66
2023/04/04 07:24:29;;;;;;;8.10;3.25;;;7.00;89.10;;;;;;5095523;28;20055;-68
2023/04/04 07:26:55;;;;;;;7.28;3.42;;;7.10;88.90;;;;;;5094396;28;20044;-67
2023/04/04 07:29:20;;;;;;;4.45;2.03;;;7.30;86.90;;;;;;5095586;28;20032;-67
2023/04/04 07:31:46;;;;;;;4.13;2.38;;;7.30;83.80;;;;;;5095565;28;20111;-67
2023/04/04 07:34:12;;;;;;;4.18;1.83;;;7.30;82.50;;;;;;5095560;28;20043;-67
2023/04/04 07:36:38;;;;;;;5.97;2.47;;;7.30;81.70;;;;;;5095519;28;20563;-67
2023/04/04 07:39:03;;;;;;;4.20;1.98;;;7.40;79.60;;;;;;5095399;28;20043;-67
2023/04/04 07:41:29;;;;;;;6.68;1.63;;;7.50;79.00;;;;;;5088084;28;20039;-67
2023/04/04 07:43:55;;;;;;;4.57;2.08;;;7.40;77.20;;;;;;5077304;28;20041;-67
2023/04/04 07:46:21;;;;;;;5.90;2.10;;;7.70;77.00;;;;;;5074228;28;20069;-67
2023/04/04 07:48:46;;;;;;;8.18;2.38;;;7.80;75.80;;;;;;5085155;28;20117;-67
2023/04/04 07:51:12;;;;;;;8.15;2.47;;;7.90;75.30;;;;;;5090937;28;20576;-67
2023/04/04 07:53:38;;;;;;;6.13;2.65;;;7.90;74.30;;;;;;5095170;28;20050;-67
2023/04/04 07:56:06;;;;;;;6.72;2.50;;;8.10;74.80;;;;;;5094878;28;20115;-66
2023/04/04 07:58:35;;;;;;;5.63;2.95;;;8.30;74.30;;;;;;5094835;28;20044;-67
2023/04/04 08:01:02;;;;;;;5.75;2.10;;;8.50;72.40;;;;;;5095134;28;20039;-68
2023/04/04 08:03:28;;;;;;;7.55;2.53;;;8.70;71.60;;;;;;5086269;28;20054;-68
2023/04/04 08:05:53;;;;;;;7.88;2.83;;;8.60;72.00;;;;;;5077980;28;20032;-67
2023/04/04 08:08:19;;;;;;;8.10;1.98;;;8.80;70.80;;;;;;5083290;28;20033;-67
2023/04/04 08:10:45;;;;;;;7.13;2.28;;;8.90;70.00;;;;;;5084615;28;20032;-67
2023/04/04 08:13:11;;;;;;;6.68;2.35;;;8.80;67.50;;;;;;5094760;28;20044;-70
2023/04/04 08:15:37;;;;;;;5.70;2.17;;;8.60;66.00;;;;;;5093221;28;20043;-68
2023/04/04 08:18:03;;;;;;;3.22;2.10;;;8.30;65.80;;;;;;5094788;28;20105;-67
2023/04/04 08:20:29;;;;;;;4.95;2.15;;;8.30;65.00;;;;;;5094626;28;20071;-68
2023/04/04 08:22:55;;;;;;;4.85;2.88;;;8.30;65.40;;;;;;5080379;28;20533;-67
2023/04/04 08:25:20;;;;;;;4.93;1.90;;;8.20;65.30;;;;;;5073668;28;20037;-67
2023/04/04 08:27:46;;;;;;;5.82;2.10;;;8.20;63.30;;;;;;5074240;28;20411;-67
2023/04/04 08:30:13;;;;;;;4.07;1.80;;;8.30;62.90;;;;;;5074344;28;20090;-67
2023/04/04 08:32:39;;;;;;;5.18;2.35;;;8.30;60.90;;;;;;5074159;28;20499;-67
2023/04/04 08:35:05;;;;;;;3.30;1.67;;;8.30;61.20;;;;;;5074059;28;20389;-67
2023/04/04 08:37:31;;;;;;;6.55;3.08;;;8.30;60.50;;;;;;5072772;28;20040;-67
2023/04/04 08:39:57;;;;;;;4.28;2.08;;;8.50;60.80;;;;;;5073890;28;20101;-67
2023/04/04 08:42:26;;;;;;;6.05;2.00;;;8.60;60.50;;;;;;5079817;28;20453;-67
2023/04/04 08:44:54;;;;;;;5.55;2.30;;;8.60;58.60;;;;;;5093772;28;20546;-67
2023/04/04 08:47:23;;;;;;;6.00;1.70;;;8.80;58.30;;;;;;5092875;28;20040;-68
2023/04/04 08:49:50;;;;;;;2.65;1.52;;;8.80;57.60;;;;;;5094153;28;20089;-67
2023/04/04 08:52:19;;;;;;;3.65;1.45;;;8.80;56.20;;;;;;5094123;28;20043;-67
2023/04/04 08:54:46;;;;;;;4.18;1.67;;;8.90;55.70;;;;;;5087016;28;20036;-67
2023/04/04 08:57:12;;;;;;;4.97;2.25;;;9.00;54.60;;;;;;5083095;28;20032;-68
2023/04/04 08:59:38;;;;;;;4.45;1.65;;;9.10;55.20;;;;;;5082872;28;20403;-68
2023/04/04 09:02:10;;;;;;;5.35;2.50;;;9.40;55.10;;;;;;5084225;28;20499;-68
2023/04/04 09:04:38;;;;;;;4.25;1.50;;;9.40;54.20;;;;;;5083327;28;20401;-68
2023/04/04 09:07:05;;;;;;;3.35;1.65;;;9.60;52.90;;;;;;5082120;28;20123;-68
2023/04/04 09:09:32;;;;;;;2.25;1.25;;;9.40;51.40;;;;;;5083424;28;20043;-67
2023/04/04 09:12:00;;;;;;;4.90;1.92;;;9.60;51.80;;;;;;5089266;28;20507;-67
2023/04/04 09:14:28;;;;;;;5.63;2.42;;;9.50;52.00;;;;;;5090211;28;20036;-67
2023/04/04 09:16:54;;;;;;;6.30;2.55;;;9.50;52.20;;;;;;5084702;28;20063;-67
2023/04/04 09:19:20;;;;;;;7.63;2.80;;;9.50;52.30;;;;;;5084266;28;20064;-68
2023/04/04 09:21:46;;;;;;;3.65;1.88;;;9.20;53.70;;;;;;5084582;28;20059;-67
2023/04/04 09:24:13;;;;;;;4.20;2.15;;;9.60;54.00;;;;;;5083685;28;20043;-68
2023/04/04 09:26:50;;;;;;;3.92;1.65;;;9.00;51.80;;;;;;5082406;28;20103;-68
2023/04/04 09:29:20;;;;;;;4.97;1.60;;;9.10;51.50;;;;;;5082696;28;20063;-68
2023/04/04 09:31:48;;;;;;;4.43;1.50;;;9.20;52.40;;;;;;5083571;28;20103;-67
2023/04/04 09:34:16;;;;;;;6.55;2.03;;;9.30;53.10;;;;;;5083649;28;20503;-70
2023/04/04 09:36:44;;;;;;;3.20;1.88;;;9.00;51.40;;;;;;5082190;28;20123;-68
2023/04/04 09:39:10;;;;;;;3.60;2.08;;;8.90;50.60;;;;;;5087177;28;20043;-68
2023/04/04 09:41:38;;;;;;;3.58;1.42;;;8.80;50.90;;;;;;5082931;28;20059;-68
2023/04/04 09:44:04;;;;;;;5.88;2.20;;;8.90;52.90;;;;;;5085342;28;20036;-68
2023/04/04 09:46:30;;;;;;;4.20;1.67;;;8.90;51.30;;;;;;5092902;28;20446;-67
2023/04/04 09:48:59;;;;;;;3.53;1.55;;;8.70;50.00;;;;;;5092771;28;20043;-69
2023/04/04 09:51:34;;;;;;;4.60;1.50;;;8.60;49.80;;;;;;5093207;28;20043;-68
2023/04/04 09:54:00;;;;;;;8.90;1.77;;;8.50;49.60;;;;;;5093026;28;20040;-68
2023/04/04 09:56:26;;;;;;;3.42;1.50;;;8.50;50.30;;;;;;5092817;28;20036;-69
2023/04/04 09:58:53;;;;;;;6.05;1.50;;;8.40;50.40;;;;;;5092756;28;20047;-67
2023/04/04 10:01:19;;;;;;;8.82;2.35;;;8.40;50.30;;;;;;5091655;28;20043;-68
2023/04/04 10:03:52;;;;;;;5.05;2.00;;;8.40;50.80;;;;;;5092622;28;20098;-68
2023/04/04 10:06:19;;;;;;;3.70;2.08;;;8.50;51.90;;;;;;5092612;28;20551;-68
2023/04/04 10:08:45;;;;;;;3.85;2.00;;;8.40;51.40;;;;;;5092737;28;20036;-68
2023/04/04 10:11:11;;;;;;;5.90;2.03;;;8.30;52.10;;;;;;5092777;28;20043;-69
2023/04/04 10:13:45;;;;;;;5.90;1.85;;;8.10;52.30;;;;;;5092549;28;20044;-68
2023/04/04 10:16:11;;;;;;;9.20;2.08;;;8.30;53.60;;;;;;5092281;28;20406;-68
2023/04/04 10:18:37;;;;;;;3.90;1.58;;;8.30;53.40;;;;;;5092640;28;20050;-68
2023/04/04 10:21:05;;;;;;;6.95;2.05;;;8.40;53.30;;;;;;5092684;28;20048;-68
2023/04/04 10:23:33;;;;;;;6.72;2.90;;;8.30;53.00;;;;;;5092460;28;20044;-68
2023/04/04 10:25:59;;;;;;;4.68;1.92;;;8.40;53.10;;;;;;5092214;28;20036;-68
2023/04/04 10:28:26;;;;;;;4.85;1.80;;;8.40;54.10;;;;;;5092175;28;20507;-69
2023/04/04 10:31:08;;;;;;;5.32;1.90;;;8.50;53.60;;;;;;5088833;28;20036;-68
2023/04/04 10:33:39;;;;;;;5.30;2.10;;;8.40;52.60;;;;;;5072196;28;20040;-68
2023/04/04 10:36:08;;;;;;;6.47;2.47;;;8.40;52.90;;;;;;5070834;28;20066;-68
2023/04/04 10:38:44;;;;;;;5.50;1.77;;;8.50;52.80;;;;;;5071701;28;20086;-68
2023/04/04 10:41:11;;;;;;;3.15;1.90;;;8.30;53.30;;;;;;5094600;22;20048;-70
2023/04/04 10:43:43;;;;;;;4.70;1.80;;;8.30;53.50;;;;;;5071141;28;20119;-71
2023/04/04 10:46:16;;;;;;;4.97;2.85;;;8.40;53.00;;;;;;5071887;28;20039;-71
2023/04/04 10:48:43;;;;;;;3.13;2.03;;;8.40;53.10;;;;;;5070509;28;20086;-71
2023/04/04 10:51:10;;;;;;;3.50;2.03;;;8.40;53.00;;;;;;5071592;28;20043;-71
2023/04/04 10:53:38;;;;;;;7.00;2.03;;;8.50;53.30;;;;;;5071241;28;20418;-71
2023/04/04 10:56:05;;;;;;;3.92;2.10;;;8.60;53.60;;;;;;5071043;28;20041;-71
2023/04/04 10:58:30;;;;;;;4.35;2.35;;;8.60;53.10;;;;;;5071226;28;20266;-71
2023/04/04 11:00:58;;;;;;;5.00;2.08;;;8.70;53.00;;;;;;5071347;28;20041;-71
2023/04/04 11:03:24;;;;;;;3.47;1.55;;;8.70;53.10;;;;;;5071567;28;20041;-71
2023/04/04 11:05:50;;;;;;;4.40;2.08;;;8.90;54.10;;;;;;5071453;28;20496;-71
2023/04/04 11:08:24;;;;;;;3.03;1.75;;;8.90;52.90;;;;;;5071575;28;20491;-71
2023/04/04 11:10:54;;;;;;;3.38;1.80;;;8.90;52.50;;;;;;5070511;28;20043;-72
2023/04/04 11:13:24;;;;;;;4.28;1.55;;;8.90;52.10;;;;;;5071575;28;20037;-71
2023/04/04 11:15:54;;;;;;;4.05;1.80;;;8.70;51.40;;;;;;5070823;28;20503;-71
2023/04/04 11:18:22;;;;;;;4.65;1.80;;;8.70;51.10;;;;;;5070727;28;20059;-71
2023/04/04 11:20:48;;;;;;;6.03;2.17;;;8.80;50.70;;;;;;5071285;28;20047;-73
2023/04/04 11:23:19;;;;;;;2.67;1.63;;;8.90;50.10;;;;;;5071145;28;20054;-74
2023/04/04 11:25:55;;;;;;;3.17;1.67;;;8.80;50.70;;;;;;5069901;28;20051;-74
2023/04/04 11:28:26;;;;;;;4.40;2.13;;;8.90;50.50;;;;;;5071670;28;20063;-74
2023/04/04 11:31:18;;;;;;;4.10;1.77;;;8.80;49.90;;;;;;5052307;28;20115;-73
2023/04/04 11:34:02;;;;;;;3.15;1.90;;;8.90;49.20;;;;;;5070008;28;20048;-74
2023/04/04 11:36:36;;;;;;;5.13;1.60;;;8.80;48.60;;;;;;5071154;28;20045;-77
2023/04/04 11:39:15;;;;;;;4.32;1.60;;;8.90;48.20;;;;;;5071284;28;20045;-75
2023/04/04 11:41:47;;;;;;;3.40;1.75;;;8.80;48.60;;;;;;5071303;28;20072;-74
2023/04/04 11:44:17;;;;;;;4.32;1.77;;;8.80;48.00;;;;;;5069748;28;20045;-74
2023/04/04 11:46:44;;;;;;;5.07;1.67;;;8.80;48.90;;;;;;5071148;28;20076;-74
2023/04/04 11:49:10;;;;;;;3.03;1.85;;;8.80;48.40;;;;;;5070109;28;20060;-76
2023/04/04 11:51:42;;;;;;;5.57;2.33;;;9.00;48.70;;;;;;5071226;28;20041;-74
2023/04/04 11:54:16;;;;;;;4.63;2.58;;;9.00;46.90;;;;;;5071016;28;20041;-74
2023/04/04 11:56:45;;;;;;;3.88;1.60;;;9.00;45.30;;;;;;5070891;28;20036;-75
2023/04/04 11:59:21;;;;;;;3.72;1.75;;;8.90;45.70;;;;;;5069984;28;20036;-74
2023/04/04 12:01:48;;;;;;;2.97;1.77;;;8.90;45.90;;;;;;5074925;28;20119;-74
2023/04/04 12:04:21;;;;;;;5.97;1.85;;;8.90;46.40;;;;;;5073346;28;20048;-75
2023/04/04 12:06:53;;;;;;;3.47;2.20;;;8.90;46.90;;;;;;5074605;28;20047;-74
2023/04/04 12:09:19;;;;;;;5.22;1.98;;;8.90;47.20;;;;;;5073743;28;20033;-74
2023/04/04 12:11:49;;;;;;;4.85;1.98;;;9.00;48.90;;;;;;5073452;28;20040;-73
2023/04/04 12:14:24;;;;;;;3.50;1.85;;;8.90;47.80;;;;;;5074586;28;20040;-74
2023/04/04 12:16:53;;;;;;;4.35;1.73;;;9.10;46.90;;;;;;5074709;28;20078;-75
2023/04/04 12:19:21;;;;;;;4.43;2.10;;;9.10;45.30;;;;;;5073211;28;20040;-74
2023/04/04 12:21:47;;;;;;;4.20;2.03;;;9.10;45.20;;;;;;5073462;28;20037;-74
2023/04/04 12:24:13;;;;;;;4.57;2.00;;;9.00;45.10;;;;;;5056177;28;20067;-74
2023/04/04 12:26:44;;;;;;;5.60;2.13;;;9.10;45.60;;;;;;5072984;28;20400;-74
2023/04/04 12:29:11;;;;;;;5.18;2.05;;;9.10;45.50;;;;;;5073061;28;20045;-74
2023/04/04 12:31:40;;;;;;;3.38;1.95;;;9.10;44.90;;;;;;5073316;28;20415;-74
2023/04/04 12:34:05;;;;;;;2.95;1.90;;;9.10;44.70;;;;;;5072947;28;20044;-74
2023/04/04 12:36:32;;;;;;;3.63;1.90;;;9.20;45.40;;;;;;5074365;28;20082;-74
2023/04/04 12:39:06;;;;;;;3.50;2.00;;;9.10;44.00;;;;;;5074307;28;20041;-74
2023/04/04 12:41:32;;;;;;;3.97;1.52;;;8.90;43.90;;;;;;5074362;28;20043;-74
2023/04/04 12:44:06;;;;;;;6.97;1.70;;;9.00;44.60;;;;;;5072708;28;20447;-75
2023/04/04 12:46:39;;;;;;;4.80;2.25;;;9.20;44.40;;;;;;5074155;28;20111;-74
2023/04/04 12:49:05;;;;;;;;;;;9.20;44.00;;;;;;5074519;28;20041;-74
2023/04/04 12:51:32;;;;;;;4.72;1.90;;;9.20;44.20;;;;;;5074189;28;19927;-74
2023/04/04 12:53:58;;;;;;;3.25;1.77;;;9.30;44.20;;;;;;5089200;28;20072;-74
2023/04/04 12:56:27;;;;;;;5.78;2.42;;;9.30;44.40;;;;;;5093962;28;20082;-74